sensor_id;sensor_type;location;lat;lon;timestamp;temperature;humidity
44223;DHT22;29895;48.804;9.386;2023-11-22T00:01:20;7.90;99.90
44223;DHT22;29895;48.804;9.386;2023-11-22T00:03:45;8.00;99.90
44223;DHT22;29895;48.804;9.386;2023-11-22T00:06:11;7.90;99.90
44223;DHT22;29895;48.804;9.386;2023-11-22T00:08:37;7.90;99.90
44223;DHT22;29895;48.804;9.386;2023-11-22T00:11:03;7.50;99.90
44223;DHT22;29895;48.804;9.386;2023-11-22T00:13:29;7.40;99.90
44223;DHT22;29895;48.804;9.386;2023-11-22T00:15:54;7.20;99.90
44223;DHT22;29895;48.804;9.386;2023-11-22T00:18:22;7.10;99.90
44223;DHT22;29895;48.804;9.386;2023-11-22T00:20:48;7.00;99.90
44223;DHT22;29895;48.804;9.386;2023-11-22T00:23:14;7.00;99.90
44223;DHT22;29895;48.804;9.386;2023-11-22T00:25:40;6.90;99.90
44223;DHT22;29895;48.804;9.386;2023-11-22T00:28:05;6.80;99.90
44223;DHT22;29895;48.804;9.386;2023-11-22T00:30:32;6.60;99.90
44223;DHT22;29895;48.804;9.386;2023-11-22T00:32:58;6.50;99.90
44223;DHT22;29895;48.804;9.386;2023-11-22T00:35:23;6.50;99.90
44223;DHT22;29895;48.804;9.386;2023-11-22T00:37:49;6.50;99.90
44223;DHT22;29895;48.804;9.386;2023-11-22T00:40:15;6.20;99.90
44223;DHT22;29895;48.804;9.386;2023-11-22T00:42:40;6.10;99.90
44223;DHT22;29895;48.804;9.386;2023-11-22T00:45:08;6.10;99.90
44223;DHT22;29895;48.804;9.386;2023-11-22T00:47:35;6.10;99.90
44223;DHT22;29895;48.804;9.386;2023-11-22T00:50:01;6.00;99.90
44223;DHT22;29895;48.804;9.386;2023-11-22T00:52:27;6.00;99.90
44223;DHT22;29895;48.804;9.386;2023-11-22T00:54:53;6.00;99.90
44223;DHT22;29895;48.804;9.386;2023-11-22T00:57:19;5.90;99.90
44223;DHT22;29895;48.804;9.386;2023-11-22T00:59:45;5.90;99.90
44223;DHT22;29895;48.804;9.386;2023-11-22T01:02:11;5.90;99.90
44223;DHT22;29895;48.804;9.386;2023-11-22T01:04:36;5.90;99.90
44223;DHT22;29895;48.804;9.386;2023-11-22T01:07:03;5.90;99.90
44223;DHT22;29895;48.804;9.386;2023-11-22T01:09:32;5.90;99.90
44223;DHT22;29895;48.804;9.386;2023-11-22T01:11:58;5.90;99.90
44223;DHT22;29895;48.804;9.386;2023-11-22T01:14:25;5.90;99.90
44223;DHT22;29895;48.804;9.386;2023-11-22T01:16:52;5.90;99.90
44223;DHT22;29895;48.804;9.386;2023-11-22T01:19:18;5.90;99.90
44223;DHT22;29895;48.804;9.386;2023-11-22T01:21:43;5.90;99.90
44223;DHT22;29895;48.804;9.386;2023-11-22T01:24:09;5.90;99.90
44223;DHT22;29895;48.804;9.386;2023-11-22T01:26:35;5.80;99.90
44223;DHT22;29895;48.804;9.386;2023-11-22T01:29:00;5.80;99.90
44223;DHT22;29895;48.804;9.386;2023-11-22T01:31:27;5.80;99.90
44223;DHT22;29895;48.804;9.386;2023-11-22T01:33:54;5.90;99.90
44223;DHT22;29895;48.804;9.386;2023-11-22T01:36:19;5.90;99.90
44223;DHT22;29895;48.804;9.386;2023-11-22T01:38:45;5.80;99.90
44223;DHT22;29895;48.804;9.386;2023-11-22T01:41:14;5.80;99.90
44223;DHT22;29895;48.804;9.386;2023-11-22T01:43:40;5.80;99.90
44223;DHT22;29895;48.804;9.386;2023-11-22T01:46:23;5.80;99.90
44223;DHT22;29895;48.804;9.386;2023-11-22T01:48:52;5.70;99.90
44223;DHT22;29895;48.804;9.386;2023-11-22T01:51:22;5.70;99.90
44223;DHT22;29895;48.804;9.386;2023-11-22T01:53:51;5.50;99.90
44223;DHT22;29895;48.804;9.386;2023-11-22T01:56:23;5.40;99.90
44223;DHT22;29895;48.804;9.386;2023-11-22T01:58:49;5.50;99.90
44223;DHT22;29895;48.804;9.386;2023-11-22T02:01:15;5.50;99.90
44223;DHT22;29895;48.804;9.386;2023-11-22T02:03:41;5.50;99.90
44223;DHT22;29895;48.804;9.386;2023-11-22T02:06:08;5.50;99.90
44223;DHT22;29895;48.804;9.386;2023-11-22T02:08:35;5.50;99.90
44223;DHT22;29895;48.804;9.386;2023-11-22T02:11:01;5.50;99.90
44223;DHT22;29895;48.804;9.386;2023-11-22T02:13:31;5.50;99.90
44223;DHT22;29895;48.804;9.386;2023-11-22T02:15:57;5.40;99.90
44223;DHT22;29895;48.804;9.386;2023-11-22T02:18:25;5.40;99.90
44223;DHT22;29895;48.804;9.386;2023-11-22T02:20:51;5.10;99.90
44223;DHT22;29895;48.804;9.386;2023-11-22T02:23:17;5.00;99.90
44223;DHT22;29895;48.804;9.386;2023-11-22T02:25:42;5.00;99.90
44223;DHT22;29895;48.804;9.386;2023-11-22T02:28:08;5.00;99.90
44223;DHT22;29895;48.804;9.386;2023-11-22T02:30:34;5.00;99.90
44223;DHT22;29895;48.804;9.386;2023-11-22T02:33:00;5.00;99.90
44223;DHT22;29895;48.804;9.386;2023-11-22T02:35:26;4.90;99.90
44223;DHT22;29895;48.804;9.386;2023-11-22T02:37:55;4.90;99.90
44223;DHT22;29895;48.804;9.386;2023-11-22T02:40:22;4.90;99.90
44223;DHT22;29895;48.804;9.386;2023-11-22T02:42:48;4.90;99.90
44223;DHT22;29895;48.804;9.386;2023-11-22T02:45:18;4.80;99.90
44223;DHT22;29895;48.804;9.386;2023-11-22T02:47:44;4.70;99.90
44223;DHT22;29895;48.804;9.386;2023-11-22T02:50:12;4.60;99.90
44223;DHT22;29895;48.804;9.386;2023-11-22T02:52:38;4.60;99.90
44223;DHT22;29895;48.804;9.386;2023-11-22T02:55:05;4.60;99.90
44223;DHT22;29895;48.804;9.386;2023-11-22T02:57:31;4.60;99.90
44223;DHT22;29895;48.804;9.386;2023-11-22T02:59:57;4.60;99.90
44223;DHT22;29895;48.804;9.386;2023-11-22T03:02:23;4.60;99.90
44223;DHT22;29895;48.804;9.386;2023-11-22T03:04:50;4.70;99.90
44223;DHT22;29895;48.804;9.386;2023-11-22T03:07:15;4.70;99.90
44223;DHT22;29895;48.804;9.386;2023-11-22T03:09:41;4.80;99.90
44223;DHT22;29895;48.804;9.386;2023-11-22T03:12:09;4.80;99.90
44223;DHT22;29895;48.804;9.386;2023-11-22T03:14:35;4.70;99.90
44223;DHT22;29895;48.804;9.386;2023-11-22T03:17:01;4.70;99.90
44223;DHT22;29895;48.804;9.386;2023-11-22T03:19:27;4.70;99.90
44223;DHT22;29895;48.804;9.386;2023-11-22T03:21:52;4.60;99.90
44223;DHT22;29895;48.804;9.386;2023-11-22T03:24:18;4.50;99.90
44223;DHT22;29895;48.804;9.386;2023-11-22T03:26:43;4.50;99.90
44223;DHT22;29895;48.804;9.386;2023-11-22T03:29:10;4.40;99.90
44223;DHT22;29895;48.804;9.386;2023-11-22T03:31:37;4.40;99.90
44223;DHT22;29895;48.804;9.386;2023-11-22T03:34:04;4.30;99.90
44223;DHT22;29895;48.804;9.386;2023-11-22T03:36:30;4.20;99.90
44223;DHT22;29895;48.804;9.386;2023-11-22T03:38:56;4.30;99.90
44223;DHT22;29895;48.804;9.386;2023-11-22T03:41:21;4.30;99.90
44223;DHT22;29895;48.804;9.386;2023-11-22T03:43:47;4.30;99.90
44223;DHT22;29895;48.804;9.386;2023-11-22T03:46:12;4.30;99.90
44223;DHT22;29895;48.804;9.386;2023-11-22T03:48:38;4.30;99.90
44223;DHT22;29895;48.804;9.386;2023-11-22T03:51:04;4.30;99.90
44223;DHT22;29895;48.804;9.386;2023-11-22T03:53:29;4.20;99.90
44223;DHT22;29895;48.804;9.386;2023-11-22T03:55:55;4.20;99.90
44223;DHT22;29895;48.804;9.386;2023-11-22T03:58:21;4.20;99.90
44223;DHT22;29895;48.804;9.386;2023-11-22T04:00:46;4.30;99.90
44223;DHT22;29895;48.804;9.386;2023-11-22T04:03:12;4.20;99.90
44223;DHT22;29895;48.804;9.386;2023-11-22T04:05:38;4.20;99.90
44223;DHT22;29895;48.804;9.386;2023-11-22T04:08:04;4.30;99.90
44223;DHT22;29895;48.804;9.386;2023-11-22T04:10:29;4.20;99.90
44223;DHT22;29895;48.804;9.386;2023-11-22T04:12:56;4.20;99.90
44223;DHT22;29895;48.804;9.386;2023-11-22T04:15:22;4.10;99.90
44223;DHT22;29895;48.804;9.386;2023-11-22T04:17:48;4.20;99.90
44223;DHT22;29895;48.804;9.386;2023-11-22T04:20:14;4.10;99.90
44223;DHT22;29895;48.804;9.386;2023-11-22T04:22:44;4.20;99.90
44223;DHT22;29895;48.804;9.386;2023-11-22T04:25:13;4.10;99.90
44223;DHT22;29895;48.804;9.386;2023-11-22T04:27:39;4.20;99.90
44223;DHT22;29895;48.804;9.386;2023-11-22T04:30:09;4.10;99.90
44223;DHT22;29895;48.804;9.386;2023-11-22T04:32:40;4.00;99.90
44223;DHT22;29895;48.804;9.386;2023-11-22T04:35:07;4.10;99.90
44223;DHT22;29895;48.804;9.386;2023-11-22T04:37:33;4.00;99.90
44223;DHT22;29895;48.804;9.386;2023-11-22T04:39:59;4.00;99.90
44223;DHT22;29895;48.804;9.386;2023-11-22T04:42:26;4.00;99.90
44223;DHT22;29895;48.804;9.386;2023-11-22T04:44:54;4.10;99.90
44223;DHT22;29895;48.804;9.386;2023-11-22T04:47:20;4.10;99.90
44223;DHT22;29895;48.804;9.386;2023-11-22T04:49:48;4.10;99.90
44223;DHT22;29895;48.804;9.386;2023-11-22T04:52:14;4.10;99.90
44223;DHT22;29895;48.804;9.386;2023-11-22T04:54:39;4.10;99.90
44223;DHT22;29895;48.804;9.386;2023-11-22T04:57:05;4.10;99.90
44223;DHT22;29895;48.804;9.386;2023-11-22T04:59:31;4.00;99.90
44223;DHT22;29895;48.804;9.386;2023-11-22T05:01:57;4.00;99.90
44223;DHT22;29895;48.804;9.386;2023-11-22T05:04:23;4.00;99.90
44223;DHT22;29895;48.804;9.386;2023-11-22T05:06:48;3.90;99.90
44223;DHT22;29895;48.804;9.386;2023-11-22T05:09:14;3.90;99.90
44223;DHT22;29895;48.804;9.386;2023-11-22T05:11:41;3.80;99.90
44223;DHT22;29895;48.804;9.386;2023-11-22T05:14:07;3.80;99.90
44223;DHT22;29895;48.804;9.386;2023-11-22T05:16:33;3.80;99.90
44223;DHT22;29895;48.804;9.386;2023-11-22T05:19:00;3.80;99.90
44223;DHT22;29895;48.804;9.386;2023-11-22T05:21:25;3.70;99.90
44223;DHT22;29895;48.804;9.386;2023-11-22T05:23:51;3.80;99.90
44223;DHT22;29895;48.804;9.386;2023-11-22T05:26:20;3.80;99.90
44223;DHT22;29895;48.804;9.386;2023-11-22T05:28:45;3.80;99.90
44223;DHT22;29895;48.804;9.386;2023-11-22T05:31:13;3.90;99.90
44223;DHT22;29895;48.804;9.386;2023-11-22T05:33:38;3.90;99.90
44223;DHT22;29895;48.804;9.386;2023-11-22T05:36:05;3.90;99.90
44223;DHT22;29895;48.804;9.386;2023-11-22T05:38:31;3.90;99.90
44223;DHT22;29895;48.804;9.386;2023-11-22T05:40:59;3.90;99.90
44223;DHT22;29895;48.804;9.386;2023-11-22T05:43:25;3.90;99.90
44223;DHT22;29895;48.804;9.386;2023-11-22T05:45:53;3.90;99.90
44223;DHT22;29895;48.804;9.386;2023-11-22T05:48:18;3.80;99.90
44223;DHT22;29895;48.804;9.386;2023-11-22T05:50:45;3.80;99.90
44223;DHT22;29895;48.804;9.386;2023-11-22T05:53:11;3.80;99.90
44223;DHT22;29895;48.804;9.386;2023-11-22T05:55:37;3.90;99.90
44223;DHT22;29895;48.804;9.386;2023-11-22T05:58:05;3.90;99.90
44223;DHT22;29895;48.804;9.386;2023-11-22T06:00:30;3.80;99.90
44223;DHT22;29895;48.804;9.386;2023-11-22T06:02:56;3.90;99.90
44223;DHT22;29895;48.804;9.386;2023-11-22T06:05:22;4.00;99.90
44223;DHT22;29895;48.804;9.386;2023-11-22T06:07:47;3.90;99.90
44223;DHT22;29895;48.804;9.386;2023-11-22T06:10:13;3.90;99.90
44223;DHT22;29895;48.804;9.386;2023-11-22T06:12:41;3.80;99.90
44223;DHT22;29895;48.804;9.386;2023-11-22T06:15:07;3.80;99.90
44223;DHT22;29895;48.804;9.386;2023-11-22T06:17:33;3.80;99.90
44223;DHT22;29895;48.804;9.386;2023-11-22T06:19:58;3.80;99.90
44223;DHT22;29895;48.804;9.386;2023-11-22T06:22:24;3.80;99.90
44223;DHT22;29895;48.804;9.386;2023-11-22T06:24:50;3.90;99.90
44223;DHT22;29895;48.804;9.386;2023-11-22T06:27:15;3.80;99.90
44223;DHT22;29895;48.804;9.386;2023-11-22T06:29:41;3.80;99.90
44223;DHT22;29895;48.804;9.386;2023-11-22T06:32:09;3.90;99.90
44223;DHT22;29895;48.804;9.386;2023-11-22T06:34:35;3.90;99.90
44223;DHT22;29895;48.804;9.386;2023-11-22T06:37:02;3.90;99.90
44223;DHT22;29895;48.804;9.386;2023-11-22T06:39:27;3.90;99.90
44223;DHT22;29895;48.804;9.386;2023-11-22T06:41:53;4.00;99.90
44223;DHT22;29895;48.804;9.386;2023-11-22T06:44:19;4.00;99.90
44223;DHT22;29895;48.804;9.386;2023-11-22T06:46:44;4.00;99.90
44223;DHT22;29895;48.804;9.386;2023-11-22T06:49:10;4.00;99.90
44223;DHT22;29895;48.804;9.386;2023-11-22T06:51:36;3.90;99.90
44223;DHT22;29895;48.804;9.386;2023-11-22T06:54:02;3.90;99.90
44223;DHT22;29895;48.804;9.386;2023-11-22T06:56:28;4.00;99.90
44223;DHT22;29895;48.804;9.386;2023-11-22T06:58:54;4.00;99.90
44223;DHT22;29895;48.804;9.386;2023-11-22T07:01:23;4.00;99.90
44223;DHT22;29895;48.804;9.386;2023-11-22T07:03:51;4.00;99.90
44223;DHT22;29895;48.804;9.386;2023-11-22T07:06:18;3.90;99.90
44223;DHT22;29895;48.804;9.386;2023-11-22T07:08:44;3.90;99.90
44223;DHT22;29895;48.804;9.386;2023-11-22T07:11:11;3.80;99.90
44223;DHT22;29895;48.804;9.386;2023-11-22T07:13:36;4.00;99.90
44223;DHT22;29895;48.804;9.386;2023-11-22T07:16:04;3.90;99.90
44223;DHT22;29895;48.804;9.386;2023-11-22T07:18:30;4.00;99.90
44223;DHT22;29895;48.804;9.386;2023-11-22T07:20:59;4.00;99.90
44223;DHT22;29895;48.804;9.386;2023-11-22T07:23:25;4.00;99.90
44223;DHT22;29895;48.804;9.386;2023-11-22T07:25:54;4.00;99.90
44223;DHT22;29895;48.804;9.386;2023-11-22T07:28:20;4.10;99.90
44223;DHT22;29895;48.804;9.386;2023-11-22T07:30:46;4.10;99.90
44223;DHT22;29895;48.804;9.386;2023-11-22T07:33:14;4.10;99.90
44223;DHT22;29895;48.804;9.386;2023-11-22T07:35:40;4.10;99.90
44223;DHT22;29895;48.804;9.386;2023-11-22T07:38:06;4.10;99.90
44223;DHT22;29895;48.804;9.386;2023-11-22T07:40:34;4.20;99.90
44223;DHT22;29895;48.804;9.386;2023-11-22T07:43:00;4.20;99.90
44223;DHT22;29895;48.804;9.386;2023-11-22T07:45:28;4.10;99.90
44223;DHT22;29895;48.804;9.386;2023-11-22T07:47:54;4.00;99.90
44223;DHT22;29895;48.804;9.386;2023-11-22T07:50:21;4.00;99.90
44223;DHT22;29895;48.804;9.386;2023-11-22T07:52:49;4.00;99.90
44223;DHT22;29895;48.804;9.386;2023-11-22T07:55:16;4.00;99.90
44223;DHT22;29895;48.804;9.386;2023-11-22T07:57:44;4.00;99.90
44223;DHT22;29895;48.804;9.386;2023-11-22T08:00:11;3.70;99.90
44223;DHT22;29895;48.804;9.386;2023-11-22T08:02:37;3.60;99.90
44223;DHT22;29895;48.804;9.386;2023-11-22T08:05:08;3.50;99.90
44223;DHT22;29895;48.804;9.386;2023-11-22T08:07:37;3.40;99.90
44223;DHT22;29895;48.804;9.386;2023-11-22T08:10:07;3.30;99.90
44223;DHT22;29895;48.804;9.386;2023-11-22T08:12:45;3.20;99.90
44223;DHT22;29895;48.804;9.386;2023-11-22T08:15:11;3.10;99.90
44223;DHT22;29895;48.804;9.386;2023-11-22T08:17:40;3.10;99.90
44223;DHT22;29895;48.804;9.386;2023-11-22T08:20:06;3.00;99.90
44223;DHT22;29895;48.804;9.386;2023-11-22T08:22:33;3.00;99.90
44223;DHT22;29895;48.804;9.386;2023-11-22T08:25:03;3.10;99.90
44223;DHT22;29895;48.804;9.386;2023-11-22T08:27:29;3.20;99.90
44223;DHT22;29895;48.804;9.386;2023-11-22T08:29:55;3.20;99.90
44223;DHT22;29895;48.804;9.386;2023-11-22T08:32:21;3.10;99.90
44223;DHT22;29895;48.804;9.386;2023-11-22T08:34:51;3.10;99.90
44223;DHT22;29895;48.804;9.386;2023-11-22T08:37:18;3.20;99.90
44223;DHT22;29895;48.804;9.386;2023-11-22T08:39:44;3.30;99.90
44223;DHT22;29895;48.804;9.386;2023-11-22T08:42:09;3.30;99.90
44223;DHT22;29895;48.804;9.386;2023-11-22T08:44:36;3.30;99.90
44223;DHT22;29895;48.804;9.386;2023-11-22T08:47:02;3.40;99.90
44223;DHT22;29895;48.804;9.386;2023-11-22T08:49:29;3.50;99.90
44223;DHT22;29895;48.804;9.386;2023-11-22T08:51:56;3.70;99.90
44223;DHT22;29895;48.804;9.386;2023-11-22T08:54:21;3.80;99.90
44223;DHT22;29895;48.804;9.386;2023-11-22T08:56:47;4.00;99.90
44223;DHT22;29895;48.804;9.386;2023-11-22T08:59:13;3.90;99.90
44223;DHT22;29895;48.804;9.386;2023-11-22T09:01:39;3.90;99.90
44223;DHT22;29895;48.804;9.386;2023-11-22T09:04:06;3.90;99.90
44223;DHT22;29895;48.804;9.386;2023-11-22T09:06:33;3.90;99.90
44223;DHT22;29895;48.804;9.386;2023-11-22T09:09:02;3.90;99.90
44223;DHT22;29895;48.804;9.386;2023-11-22T09:11:28;3.70;99.90
44223;DHT22;29895;48.804;9.386;2023-11-22T09:13:54;3.70;99.90
44223;DHT22;29895;48.804;9.386;2023-11-22T09:16:23;3.80;99.90
44223;DHT22;29895;48.804;9.386;2023-11-22T09:18:50;3.80;99.90
44223;DHT22;29895;48.804;9.386;2023-11-22T09:21:16;3.70;99.90
44223;DHT22;29895;48.804;9.386;2023-11-22T09:23:43;3.60;99.90
44223;DHT22;29895;48.804;9.386;2023-11-22T09:26:08;3.70;99.90
44223;DHT22;29895;48.804;9.386;2023-11-22T09:28:34;3.80;99.90
44223;DHT22;29895;48.804;9.386;2023-11-22T09:31:00;3.80;99.90
44223;DHT22;29895;48.804;9.386;2023-11-22T09:33:32;3.90;99.90
44223;DHT22;29895;48.804;9.386;2023-11-22T09:35:58;4.00;99.90
44223;DHT22;29895;48.804;9.386;2023-11-22T09:38:24;4.20;99.90
44223;DHT22;29895;48.804;9.386;2023-11-22T09:40:50;4.10;99.90
44223;DHT22;29895;48.804;9.386;2023-11-22T09:43:18;4.10;99.90
44223;DHT22;29895;48.804;9.386;2023-11-22T09:45:44;4.10;99.90
44223;DHT22;29895;48.804;9.386;2023-11-22T09:48:17;4.10;99.90
44223;DHT22;29895;48.804;9.386;2023-11-22T09:50:50;4.20;99.90
44223;DHT22;29895;48.804;9.386;2023-11-22T09:53:30;4.20;99.90
44223;DHT22;29895;48.804;9.386;2023-11-22T09:55:57;4.30;99.90
44223;DHT22;29895;48.804;9.386;2023-11-22T09:58:23;4.30;99.90
44223;DHT22;29895;48.804;9.386;2023-11-22T10:00:50;4.20;99.90
44223;DHT22;29895;48.804;9.386;2023-11-22T10:03:18;4.10;99.90
44223;DHT22;29895;48.804;9.386;2023-11-22T10:05:45;4.00;99.90
44223;DHT22;29895;48.804;9.386;2023-11-22T10:08:11;3.90;99.90
44223;DHT22;29895;48.804;9.386;2023-11-22T10:10:37;3.90;99.90
44223;DHT22;29895;48.804;9.386;2023-11-22T10:13:03;3.70;99.90
44223;DHT22;29895;48.804;9.386;2023-11-22T10:15:29;3.60;99.90
44223;DHT22;29895;48.804;9.386;2023-11-22T10:17:57;3.60;99.90
44223;DHT22;29895;48.804;9.386;2023-11-22T10:23:00;3.50;99.90
44223;DHT22;29895;48.804;9.386;2023-11-22T10:25:26;3.50;99.90
44223;DHT22;29895;48.804;9.386;2023-11-22T10:27:52;3.50;99.90
44223;DHT22;29895;48.804;9.386;2023-11-22T10:30:18;3.40;99.90
44223;DHT22;29895;48.804;9.386;2023-11-22T10:32:45;3.40;99.90
44223;DHT22;29895;48.804;9.386;2023-11-22T10:35:11;3.40;99.90
44223;DHT22;29895;48.804;9.386;2023-11-22T10:37:41;3.40;99.90
44223;DHT22;29895;48.804;9.386;2023-11-22T10:40:07;3.50;99.90
44223;DHT22;29895;48.804;9.386;2023-11-22T10:42:36;3.60;99.90
44223;DHT22;29895;48.804;9.386;2023-11-22T10:45:03;3.60;99.90
44223;DHT22;29895;48.804;9.386;2023-11-22T10:47:36;3.60;99.90
44223;DHT22;29895;48.804;9.386;2023-11-22T10:50:03;3.40;99.90
44223;DHT22;29895;48.804;9.386;2023-11-22T10:52:30;3.40;99.90
44223;DHT22;29895;48.804;9.386;2023-11-22T10:55:01;3.50;99.90
44223;DHT22;29895;48.804;9.386;2023-11-22T10:57:39;3.40;99.90
44223;DHT22;29895;48.804;9.386;2023-11-22T11:00:08;3.30;99.90
44223;DHT22;29895;48.804;9.386;2023-11-22T11:02:41;3.40;99.90
44223;DHT22;29895;48.804;9.386;2023-11-22T11:05:20;3.40;99.90
44223;DHT22;29895;48.804;9.386;2023-11-22T11:07:57;3.60;99.90
44223;DHT22;29895;48.804;9.386;2023-11-22T11:10:25;3.50;99.90
44223;DHT22;29895;48.804;9.386;2023-11-22T11:12:52;3.50;99.90
44223;DHT22;29895;48.804;9.386;2023-11-22T11:15:21;3.50;99.90
44223;DHT22;29895;48.804;9.386;2023-11-22T11:17:47;3.40;99.90
44223;DHT22;29895;48.804;9.386;2023-11-22T11:20:16;3.50;99.90
44223;DHT22;29895;48.804;9.386;2023-11-22T11:22:44;3.50;99.90
44223;DHT22;29895;48.804;9.386;2023-11-22T11:25:17;3.50;99.90
44223;DHT22;29895;48.804;9.386;2023-11-22T11:27:56;3.60;99.90
44223;DHT22;29895;48.804;9.386;2023-11-22T11:33:34;3.70;99.90
44223;DHT22;29895;48.804;9.386;2023-11-22T11:36:03;3.70;99.90
44223;DHT22;29895;48.804;9.386;2023-11-22T11:38:35;3.80;99.90
44223;DHT22;29895;48.804;9.386;2023-11-22T11:41:11;3.70;99.90
44223;DHT22;29895;48.804;9.386;2023-11-22T11:43:44;3.90;99.90
44223;DHT22;29895;48.804;9.386;2023-11-22T11:46:17;3.90;99.90
44223;DHT22;29895;48.804;9.386;2023-11-22T11:48:50;4.00;99.90
44223;DHT22;29895;48.804;9.386;2023-11-22T11:51:17;4.10;99.90
44223;DHT22;29895;48.804;9.386;2023-11-22T11:53:45;4.00;99.90
44223;DHT22;29895;48.804;9.386;2023-11-22T11:56:11;3.90;99.90
44223;DHT22;29895;48.804;9.386;2023-11-22T11:58:38;3.80;99.90
44223;DHT22;29895;48.804;9.386;2023-11-22T12:01:06;3.90;99.90
44223;DHT22;29895;48.804;9.386;2023-11-22T12:03:36;4.10;99.90
44223;DHT22;29895;48.804;9.386;2023-11-22T12:06:01;4.00;99.90
44223;DHT22;29895;48.804;9.386;2023-11-22T12:08:27;3.90;99.90
44223;DHT22;29895;48.804;9.386;2023-11-22T12:10:56;3.80;99.90
44223;DHT22;29895;48.804;9.386;2023-11-22T12:13:24;3.80;99.90
44223;DHT22;29895;48.804;9.386;2023-11-22T12:15:53;3.90;99.90
44223;DHT22;29895;48.804;9.386;2023-11-22T12:18:19;3.70;99.90
44223;DHT22;29895;48.804;9.386;2023-11-22T12:20:59;3.70;99.90
44223;DHT22;29895;48.804;9.386;2023-11-22T12:23:26;3.60;99.90
44223;DHT22;29895;48.804;9.386;2023-11-22T12:26:00;3.80;99.90
44223;DHT22;29895;48.804;9.386;2023-11-22T12:28:27;3.80;99.90
44223;DHT22;29895;48.804;9.386;2023-11-22T12:30:53;4.00;99.90
44223;DHT22;29895;48.804;9.386;2023-11-22T12:33:19;4.00;99.90
44223;DHT22;29895;48.804;9.386;2023-11-22T12:35:46;3.90;99.90
44223;DHT22;29895;48.804;9.386;2023-11-22T12:38:12;3.90;99.90
44223;DHT22;29895;48.804;9.386;2023-11-22T12:40:42;3.90;99.90
44223;DHT22;29895;48.804;9.386;2023-11-22T12:43:08;3.90;99.90
44223;DHT22;29895;48.804;9.386;2023-11-22T12:45:34;3.90;99.90
44223;DHT22;29895;48.804;9.386;2023-11-22T12:48:23;3.80;99.90
44223;DHT22;29895;48.804;9.386;2023-11-22T12:50:50;3.80;99.90
44223;DHT22;29895;48.804;9.386;2023-11-22T12:53:16;3.90;99.90
44223;DHT22;29895;48.804;9.386;2023-11-22T12:55:43;3.90;99.90
44223;DHT22;29895;48.804;9.386;2023-11-22T12:58:10;4.00;99.90
44223;DHT22;29895;48.804;9.386;2023-11-22T13:00:35;3.90;99.90
44223;DHT22;29895;48.804;9.386;2023-11-22T13:03:02;3.80;99.90
44223;DHT22;29895;48.804;9.386;2023-11-22T13:05:27;3.90;99.90
44223;DHT22;29895;48.804;9.386;2023-11-22T13:07:53;4.00;99.90
44223;DHT22;29895;48.804;9.386;2023-11-22T13:10:19;3.80;99.90
44223;DHT22;29895;48.804;9.386;2023-11-22T13:12:50;3.80;99.90
44223;DHT22;29895;48.804;9.386;2023-11-22T13:15:16;3.70;99.90
44223;DHT22;29895;48.804;9.386;2023-11-22T13:17:42;3.70;99.90
44223;DHT22;29895;48.804;9.386;2023-11-22T13:20:08;3.60;99.90
44223;DHT22;29895;48.804;9.386;2023-11-22T13:22:43;3.60;99.90
44223;DHT22;29895;48.804;9.386;2023-11-22T13:25:11;3.70;99.90
44223;DHT22;29895;48.804;9.386;2023-11-22T13:27:39;3.80;99.90
44223;DHT22;29895;48.804;9.386;2023-11-22T13:30:05;3.80;99.90
44223;DHT22;29895;48.804;9.386;2023-11-22T13:32:31;3.70;99.90
44223;DHT22;29895;48.804;9.386;2023-11-22T13:34:57;3.80;99.90
44223;DHT22;29895;48.804;9.386;2023-11-22T13:37:24;3.80;99.90
44223;DHT22;29895;48.804;9.386;2023-11-22T13:39:50;3.80;99.90
44223;DHT22;29895;48.804;9.386;2023-11-22T13:42:15;3.80;99.90
44223;DHT22;29895;48.804;9.386;2023-11-22T13:44:41;3.90;99.90
44223;DHT22;29895;48.804;9.386;2023-11-22T13:47:07;3.90;99.90
44223;DHT22;29895;48.804;9.386;2023-11-22T13:49:33;4.00;99.90
44223;DHT22;29895;48.804;9.386;2023-11-22T13:51:59;3.90;99.90
44223;DHT22;29895;48.804;9.386;2023-11-22T13:54:25;3.90;99.90
44223;DHT22;29895;48.804;9.386;2023-11-22T13:56:50;3.90;99.90
44223;DHT22;29895;48.804;9.386;2023-11-22T13:59:17;3.80;99.90
44223;DHT22;29895;48.804;9.386;2023-11-22T14:01:42;3.70;99.90
44223;DHT22;29895;48.804;9.386;2023-11-22T14:04:08;3.70;99.90
44223;DHT22;29895;48.804;9.386;2023-11-22T14:06:35;3.80;99.90
44223;DHT22;29895;48.804;9.386;2023-11-22T14:09:00;3.80;99.90
44223;DHT22;29895;48.804;9.386;2023-11-22T14:11:26;3.90;99.90
44223;DHT22;29895;48.804;9.386;2023-11-22T14:13:52;3.90;99.90
44223;DHT22;29895;48.804;9.386;2023-11-22T14:16:17;3.80;99.90
44223;DHT22;29895;48.804;9.386;2023-11-22T14:18:44;3.90;99.90
44223;DHT22;29895;48.804;9.386;2023-11-22T14:21:10;3.90;99.90
44223;DHT22;29895;48.804;9.386;2023-11-22T14:23:36;3.80;99.90
44223;DHT22;29895;48.804;9.386;2023-11-22T14:26:02;3.70;99.90
44223;DHT22;29895;48.804;9.386;2023-11-22T14:28:28;3.50;99.90
44223;DHT22;29895;48.804;9.386;2023-11-22T14:30:55;3.50;99.90
44223;DHT22;29895;48.804;9.386;2023-11-22T14:33:21;3.40;99.90
44223;DHT22;29895;48.804;9.386;2023-11-22T14:35:46;3.60;99.90
44223;DHT22;29895;48.804;9.386;2023-11-22T14:38:12;3.60;99.90
44223;DHT22;29895;48.804;9.386;2023-11-22T14:40:39;3.60;99.90
44223;DHT22;29895;48.804;9.386;2023-11-22T14:43:06;3.60;99.90
44223;DHT22;29895;48.804;9.386;2023-11-22T14:45:32;3.50;99.90
44223;DHT22;29895;48.804;9.386;2023-11-22T14:47:58;3.40;99.90
44223;DHT22;29895;48.804;9.386;2023-11-22T14:50:26;3.40;99.90
44223;DHT22;29895;48.804;9.386;2023-11-22T14:52:53;3.50;99.90
44223;DHT22;29895;48.804;9.386;2023-11-22T14:55:20;3.50;99.90
44223;DHT22;29895;48.804;9.386;2023-11-22T14:57:46;3.60;99.90
44223;DHT22;29895;48.804;9.386;2023-11-22T15:00:13;3.60;99.90
44223;DHT22;29895;48.804;9.386;2023-11-22T15:02:40;3.60;99.90
44223;DHT22;29895;48.804;9.386;2023-11-22T15:05:08;3.50;99.90
44223;DHT22;29895;48.804;9.386;2023-11-22T15:07:37;3.40;99.90
44223;DHT22;29895;48.804;9.386;2023-11-22T15:10:07;3.40;99.90
44223;DHT22;29895;48.804;9.386;2023-11-22T15:12:33;3.40;99.90
44223;DHT22;29895;48.804;9.386;2023-11-22T15:15:00;3.30;99.90
44223;DHT22;29895;48.804;9.386;2023-11-22T15:17:26;3.30;99.90
44223;DHT22;29895;48.804;9.386;2023-11-22T15:19:51;3.40;99.90
44223;DHT22;29895;48.804;9.386;2023-11-22T15:22:17;3.40;99.90
44223;DHT22;29895;48.804;9.386;2023-11-22T15:24:43;3.50;99.90
44223;DHT22;29895;48.804;9.386;2023-11-22T15:27:09;3.50;99.90
44223;DHT22;29895;48.804;9.386;2023-11-22T15:29:35;3.50;99.90
44223;DHT22;29895;48.804;9.386;2023-11-22T15:32:01;3.50;99.90
44223;DHT22;29895;48.804;9.386;2023-11-22T15:34:28;3.50;99.90
44223;DHT22;29895;48.804;9.386;2023-11-22T15:36:53;3.40;99.90
44223;DHT22;29895;48.804;9.386;2023-11-22T15:39:19;3.40;99.90
44223;DHT22;29895;48.804;9.386;2023-11-22T15:41:47;3.50;99.90
44223;DHT22;29895;48.804;9.386;2023-11-22T15:44:14;3.50;99.90
44223;DHT22;29895;48.804;9.386;2023-11-22T15:46:41;3.50;99.90
44223;DHT22;29895;48.804;9.386;2023-11-22T15:49:10;3.40;99.90